createdAt,value
2018-04-22T00:01:52.570Z,15.20
2018-04-22T00:04:21.786Z,15.10
2018-04-22T00:06:50.070Z,15.10
2018-04-22T00:09:18.364Z,15.00
2018-04-22T00:11:46.636Z,15.00
2018-04-22T00:17:30.520Z,14.90
2018-04-22T00:19:59.769Z,14.80
2018-04-22T00:22:28.074Z,14.80
2018-04-22T00:24:58.337Z,14.80
2018-04-22T00:36:27.442Z,14.50
2018-04-22T00:38:56.572Z,14.40
2018-04-22T00:41:24.856Z,14.40
2018-04-22T00:43:53.120Z,14.40
2018-04-22T00:46:22.193Z,14.40
2018-04-22T00:48:51.250Z,14.30
2018-04-22T00:51:19.564Z,14.30
2018-04-22T00:54:00.967Z,14.20
2018-04-22T00:56:30.053Z,14.20
2018-04-22T00:58:58.361Z,14.20
2018-04-22T01:01:26.633Z,14.20
2018-04-22T01:03:54.946Z,14.10
2018-04-22T01:06:23.255Z,14.10
2018-04-22T01:08:51.555Z,14.10
2018-04-22T01:11:19.833Z,14.10
2018-04-22T01:13:48.929Z,14.00
2018-04-22T01:16:17.969Z,14.00
2018-04-22T01:18:47.460Z,14.00
2018-04-22T01:21:15.789Z,13.90
2018-04-22T01:23:44.338Z,13.90
2018-04-22T01:26:12.650Z,13.90
2018-04-22T01:28:40.934Z,13.90
2018-04-22T01:31:09.245Z,13.80
2018-04-22T01:33:37.546Z,13.80
2018-04-22T01:36:06.139Z,13.80
2018-04-22T01:38:34.459Z,13.70
2018-04-22T01:41:03.137Z,13.70
2018-04-22T01:43:31.437Z,13.70
2018-04-22T01:45:59.757Z,13.70
2018-04-22T01:48:28.063Z,13.70
2018-04-22T01:50:56.334Z,13.70
2018-04-22T01:53:24.697Z,13.60
2018-04-22T01:55:53.791Z,13.60
2018-04-22T01:58:22.073Z,13.50
2018-04-22T02:00:50.361Z,13.60
2018-04-22T02:03:18.655Z,13.50
2018-04-22T02:05:46.935Z,13.40
2018-04-22T02:08:15.221Z,13.40
2018-04-22T02:10:43.529Z,13.40
2018-04-22T02:13:11.800Z,13.30
2018-04-22T02:15:40.113Z,13.30
2018-04-22T02:18:08.391Z,13.30
2018-04-22T02:20:36.683Z,13.30
2018-04-22T02:23:04.974Z,13.20
2018-04-22T02:25:33.258Z,13.20
2018-04-22T02:28:02.599Z,13.20
2018-04-22T02:30:31.689Z,13.10
2018-04-22T02:33:00.740Z,13.10
2018-04-22T02:35:29.005Z,13.00
2018-04-22T02:37:57.311Z,13.10
2018-04-22T02:40:25.614Z,13.00
2018-04-22T02:42:53.884Z,13.00
2018-04-22T02:45:22.952Z,12.90
2018-04-22T02:47:51.216Z,12.90
2018-04-22T02:50:19.696Z,12.90
2018-04-22T02:52:47.958Z,12.90
2018-04-22T02:55:16.254Z,12.80
2018-04-22T02:57:44.539Z,12.90
2018-04-22T03:00:12.848Z,12.80
2018-04-22T03:02:41.911Z,12.80
2018-04-22T03:05:10.183Z,12.80
2018-04-22T03:07:38.481Z,12.80
2018-04-22T03:10:06.748Z,12.80
2018-04-22T03:12:35.103Z,12.70
2018-04-22T03:15:03.390Z,12.80
2018-04-22T03:17:31.706Z,12.70
2018-04-22T03:20:00.757Z,12.70
2018-04-22T03:22:29.030Z,12.70
2018-04-22T03:24:57.317Z,12.70
2018-04-22T03:27:25.587Z,12.60
2018-04-22T03:29:54.198Z,12.60
2018-04-22T03:32:22.468Z,12.60
2018-04-22T03:34:51.539Z,12.60
2018-04-22T03:37:19.825Z,12.60
2018-04-22T03:39:48.158Z,12.60
2018-04-22T03:42:17.237Z,12.50
2018-04-22T03:44:46.935Z,12.50
2018-04-22T03:47:15.995Z,12.50
2018-04-22T03:49:44.271Z,12.50
2018-04-22T03:52:12.563Z,12.50
2018-04-22T03:54:40.848Z,12.50
2018-04-22T03:57:09.902Z,12.50
2018-04-22T03:59:38.197Z,12.50
2018-04-22T04:02:06.521Z,12.40
2018-04-22T04:04:34.802Z,12.50
2018-04-22T04:07:03.111Z,12.40
2018-04-22T04:09:32.136Z,12.40
2018-04-22T04:12:00.455Z,12.40
2018-04-22T04:14:29.539Z,12.40
2018-04-22T04:16:57.836Z,12.40
2018-04-22T04:19:37.953Z,12.40
2018-04-22T04:22:18.314Z,12.40
2018-04-22T04:27:47.874Z,12.40
2018-04-22T04:30:16.150Z,12.40
2018-04-22T04:32:44.485Z,12.40
2018-04-22T04:35:12.787Z,12.50
2018-04-22T04:37:41.067Z,12.50
2018-04-22T04:40:09.380Z,12.50
2018-04-22T04:42:37.631Z,12.50
2018-04-22T04:45:05.971Z,12.50
2018-04-22T04:47:34.310Z,12.50
2018-04-22T04:50:02.599Z,12.50
2018-04-22T04:52:31.793Z,12.60
2018-04-22T04:55:00.167Z,12.60
2018-04-22T04:57:28.518Z,12.60
2018-04-22T04:59:56.839Z,12.70
2018-04-22T05:02:26.038Z,12.70
2018-04-22T05:04:55.097Z,12.80
2018-04-22T05:07:23.602Z,12.70
2018-04-22T05:09:51.884Z,12.80
2018-04-22T05:12:20.219Z,12.80
2018-04-22T05:14:48.474Z,12.90
2018-04-22T05:17:16.771Z,12.90
2018-04-22T05:19:45.162Z,12.90
2018-04-22T05:22:13.547Z,12.90
2018-04-22T05:24:41.842Z,13.00
2018-04-22T05:27:10.138Z,13.00
2018-04-22T05:29:38.461Z,13.10
2018-04-22T05:32:06.809Z,13.10
2018-04-22T05:34:35.158Z,13.20
2018-04-22T05:37:03.461Z,13.20
2018-04-22T05:39:31.765Z,13.30
2018-04-22T05:42:00.109Z,13.40
2018-04-22T05:44:28.503Z,13.40
2018-04-22T05:46:57.648Z,13.50
2018-04-22T05:49:25.958Z,13.50
2018-04-22T05:51:54.250Z,13.60
2018-04-22T05:54:23.282Z,13.60
2018-04-22T05:56:52.526Z,13.60
2018-04-22T05:59:20.803Z,13.70
2018-04-22T06:01:49.117Z,13.90
2018-04-22T06:04:18.159Z,14.00
2018-04-22T06:06:46.430Z,14.00
2018-04-22T06:09:14.730Z,14.10
2018-04-22T06:11:43.062Z,14.20
2018-04-22T06:14:11.386Z,14.20
2018-04-22T06:16:39.650Z,14.30
2018-04-22T06:19:07.949Z,14.40
2018-04-22T06:21:36.290Z,14.50
2018-04-22T06:24:08.742Z,14.70
2018-04-22T06:29:37.568Z,14.90
2018-04-22T06:49:54.554Z,15.50
2018-04-22T06:52:22.868Z,15.60
2018-04-22T06:54:51.920Z,15.80
2018-04-22T06:57:20.199Z,15.80
2018-04-22T06:59:48.501Z,15.90
2018-04-22T07:02:16.809Z,16.00
2018-04-22T07:04:45.139Z,16.10
2018-04-22T07:07:13.436Z,16.20
2018-04-22T07:24:47.562Z,17.20
2018-04-22T07:39:27.236Z,17.70
2018-04-22T07:41:55.521Z,17.90
2018-04-22T07:44:23.841Z,18.00
2018-04-22T07:46:53.537Z,18.30
2018-04-22T07:49:21.906Z,18.30
2018-04-22T07:51:50.202Z,18.40
2018-04-22T07:54:18.517Z,18.60
2018-04-22T07:56:47.607Z,18.80
2018-04-22T07:59:16.687Z,19.00
2018-04-22T08:01:45.801Z,19.10
2018-04-22T08:04:14.912Z,19.30
2018-04-22T08:06:43.975Z,19.40
2018-04-22T08:18:15.327Z,19.90
2018-04-22T08:20:43.613Z,19.90
2018-04-22T08:23:11.956Z,20.00
2018-04-22T08:25:40.238Z,20.10
2018-04-22T08:28:09.294Z,20.40
2018-04-22T08:30:37.605Z,20.40
2018-04-22T08:33:05.878Z,20.60
2018-04-22T08:35:34.218Z,20.80
2018-04-22T08:38:02.496Z,20.90
2018-04-22T08:40:30.799Z,21.10
2018-04-22T08:42:59.066Z,21.20
2018-04-22T08:45:27.341Z,21.40
2018-04-22T08:47:55.665Z,21.50
2018-04-22T08:50:24.703Z,21.80
2018-04-22T08:52:55.260Z,21.90
2018-04-22T08:55:23.519Z,21.90
2018-04-22T08:57:51.828Z,22.10
2018-04-22T09:00:20.438Z,22.20
2018-04-22T09:02:48.761Z,22.30
2018-04-22T09:05:17.015Z,22.30
2018-04-22T09:07:45.349Z,22.40
2018-04-22T09:10:13.634Z,22.50
2018-04-22T09:12:41.951Z,22.60
2018-04-22T09:15:10.227Z,22.70
2018-04-22T09:17:38.501Z,22.80
2018-04-22T09:20:06.841Z,22.90
2018-04-22T09:22:35.097Z,23.00
2018-04-22T09:25:03.407Z,23.10
2018-04-22T09:27:31.677Z,23.20
2018-04-22T09:29:59.985Z,23.20
2018-04-22T09:32:29.089Z,23.40
2018-04-22T09:34:58.133Z,23.50
2018-04-22T09:37:26.478Z,23.50
2018-04-22T09:39:54.758Z,23.60
2018-04-22T09:42:23.053Z,23.60
2018-04-22T09:44:51.331Z,23.70
2018-04-22T09:47:19.631Z,23.70
2018-04-22T09:49:48.016Z,23.80
2018-04-22T09:52:16.333Z,23.90
2018-04-22T09:54:44.617Z,23.90
2018-04-22T09:57:12.881Z,24.00
2018-04-22T09:59:41.934Z,24.20
2018-04-22T10:02:16.034Z,24.10
2018-04-22T10:04:47.291Z,24.30
2018-04-22T10:07:15.604Z,24.40
2018-04-22T10:09:44.677Z,24.50
2018-04-22T10:12:12.963Z,24.50
2018-04-22T10:14:41.299Z,24.60
2018-04-22T10:17:09.590Z,24.70
2018-04-22T10:19:37.876Z,24.70
2018-04-22T10:22:06.476Z,24.70
2018-04-22T10:24:34.737Z,24.90
2018-04-22T10:27:03.054Z,24.90
2018-04-22T10:29:32.080Z,25.20
2018-04-22T10:32:00.362Z,25.10
2018-04-22T10:34:28.670Z,25.30
2018-04-22T10:36:56.972Z,25.40
2018-04-22T10:39:25.275Z,25.50
2018-04-22T10:41:53.758Z,25.50
2018-04-22T10:44:22.091Z,25.50
2018-04-22T10:46:50.399Z,25.50
2018-04-22T10:49:18.705Z,25.50
2018-04-22T10:51:49.778Z,25.60
2018-04-22T10:54:18.098Z,25.70
2018-04-22T10:56:47.363Z,25.90
2018-04-22T10:59:15.838Z,25.90
2018-04-22T11:01:44.953Z,26.10
2018-04-22T11:04:13.238Z,26.10
2018-04-22T11:06:41.583Z,26.20
2018-04-22T11:09:09.919Z,26.30
2018-04-22T11:11:39.063Z,26.40
2018-04-22T11:14:07.439Z,26.30
2018-04-22T11:16:36.381Z,26.50
2018-04-22T11:19:04.851Z,26.50
2018-04-22T11:21:33.234Z,26.50
2018-04-22T11:24:01.515Z,26.60
2018-04-22T11:26:29.790Z,26.60
2018-04-22T11:28:58.189Z,26.80
2018-04-22T11:31:26.827Z,27.10
2018-04-22T11:33:55.684Z,27.60
2018-04-22T11:36:24.778Z,29.40
2018-04-22T11:38:53.287Z,29.30
2018-04-22T11:41:21.737Z,30.40
2018-04-22T11:43:51.673Z,32.00
2018-04-22T11:46:20.715Z,32.40
2018-04-22T11:48:49.012Z,32.40
2018-04-22T11:51:17.302Z,32.90
2018-04-22T11:53:46.398Z,33.70
2018-04-22T11:56:14.648Z,33.60
2018-04-22T11:58:42.936Z,34.20
2018-04-22T12:01:11.455Z,34.70
2018-04-22T12:03:39.764Z,35.00
2018-04-22T12:06:08.313Z,35.30
2018-04-22T12:08:37.330Z,35.70
2018-04-22T12:11:05.602Z,36.20
2018-04-22T12:13:34.134Z,36.70
2018-04-22T12:16:02.577Z,37.30
2018-04-22T12:18:32.809Z,38.40
2018-04-22T12:21:01.219Z,38.30
2018-04-22T12:23:29.508Z,38.80
2018-04-22T12:25:57.790Z,39.40
2018-04-22T12:28:26.824Z,40.00
2018-04-22T12:30:55.157Z,40.00
2018-04-22T12:33:23.418Z,40.10
2018-04-22T12:35:51.684Z,40.40
2018-04-22T12:38:20.921Z,41.00
2018-04-22T12:40:49.521Z,41.00
2018-04-22T12:43:17.969Z,41.40
2018-04-22T12:45:46.274Z,41.70
2018-04-22T12:48:15.365Z,42.00
2018-04-22T12:50:44.404Z,42.40
2018-04-22T12:53:12.791Z,42.40
2018-04-22T12:55:41.111Z,42.60
2018-04-22T12:58:09.432Z,42.80
2018-04-22T13:00:37.707Z,43.00
2018-04-22T13:03:05.990Z,43.00
2018-04-22T13:05:34.314Z,43.20
2018-04-22T13:08:02.581Z,43.40
2018-04-22T13:10:30.921Z,43.60
2018-04-22T13:12:59.235Z,43.70
2018-04-22T13:15:28.329Z,43.70
2018-04-22T13:17:56.658Z,43.60
2018-04-22T13:20:25.773Z,43.70
2018-04-22T13:22:54.100Z,43.70
2018-04-22T13:25:22.423Z,43.70
2018-04-22T13:27:51.444Z,43.70
2018-04-22T13:30:19.837Z,43.60
2018-04-22T13:32:48.153Z,43.70
2018-04-22T13:35:17.218Z,43.80
2018-04-22T13:37:45.624Z,43.80
2018-04-22T13:40:13.884Z,44.00
2018-04-22T13:45:32.649Z,44.50
2018-04-22T13:48:01.179Z,44.60
2018-04-22T13:53:07.124Z,43.80
2018-04-22T13:55:36.386Z,43.30
2018-04-22T13:58:08.644Z,43.40
2018-04-22T14:00:38.344Z,43.40
2018-04-22T14:03:06.728Z,43.50
2018-04-22T14:05:36.370Z,43.40
2018-04-22T14:08:04.770Z,43.40
2018-04-22T14:10:33.272Z,43.10
2018-04-22T14:13:02.443Z,43.30
2018-04-22T14:15:30.766Z,43.20
2018-04-22T14:17:59.661Z,43.20
2018-04-22T14:20:28.041Z,43.10
2018-04-22T14:22:57.225Z,43.10
2018-04-22T14:25:26.298Z,43.20
2018-04-22T14:27:56.394Z,43.30
2018-04-22T14:30:24.875Z,43.30
2018-04-22T14:32:53.284Z,43.30
2018-04-22T14:35:22.048Z,43.40
2018-04-22T14:37:50.657Z,43.60
2018-04-22T14:40:21.076Z,43.70
2018-04-22T14:42:50.663Z,43.70
2018-04-22T14:45:31.009Z,43.60
2018-04-22T14:47:59.318Z,43.70
2018-04-22T14:50:28.080Z,43.70
2018-04-22T14:52:57.398Z,43.50
2018-04-22T14:55:26.905Z,43.50
2018-04-22T14:57:59.158Z,43.30
2018-04-22T15:00:27.748Z,43.30
2018-04-22T15:02:56.131Z,43.20
2018-04-22T15:05:24.775Z,43.30
2018-04-22T15:07:54.644Z,43.00
2018-04-22T15:10:24.689Z,42.70
2018-04-22T15:12:53.039Z,42.70
2018-04-22T15:15:21.364Z,42.50
2018-04-22T15:17:51.808Z,42.50
2018-04-22T15:20:23.488Z,42.30
2018-04-22T15:22:51.814Z,42.10
2018-04-22T15:34:06.716Z,39.80
2018-04-22T15:50:01.251Z,37.80
2018-04-22T15:52:30.477Z,37.20
2018-04-22T15:55:01.050Z,36.90
2018-04-22T15:57:29.648Z,36.90
2018-04-22T16:00:00.668Z,36.70
2018-04-22T16:02:30.930Z,36.00
2018-04-22T16:04:59.492Z,36.00
2018-04-22T16:07:29.009Z,35.60
2018-04-22T16:10:03.761Z,35.50
2018-04-22T16:12:47.361Z,35.50
2018-04-22T16:15:32.784Z,35.70
2018-04-22T16:18:04.395Z,35.80
2018-04-22T16:20:33.765Z,36.20
2018-04-22T16:23:02.506Z,36.10
2018-04-22T16:25:31.229Z,36.30
2018-04-22T16:28:01.027Z,36.40
2018-04-22T16:30:30.460Z,36.50
2018-04-22T16:33:00.036Z,36.50
2018-04-22T16:35:29.712Z,36.50
2018-04-22T16:37:58.693Z,36.50
2018-04-22T16:40:35.005Z,36.30
2018-04-22T16:43:10.270Z,36.20
2018-04-22T16:45:48.858Z,35.80
2018-04-22T16:48:17.240Z,35.80
2018-04-22T16:50:45.697Z,35.50
2018-04-22T16:53:14.953Z,34.90
2018-04-22T16:55:43.285Z,34.90
2018-04-22T16:58:11.560Z,34.60
2018-04-22T17:00:39.847Z,34.20
2018-04-22T17:03:08.185Z,33.90
2018-04-22T17:05:36.627Z,33.50
2018-04-22T17:08:05.072Z,33.00
2018-04-22T17:10:33.409Z,32.40
2018-04-22T17:13:01.841Z,31.90
2018-04-22T17:15:30.153Z,31.50
2018-04-22T17:17:58.483Z,31.10
2018-04-22T17:20:26.780Z,30.60
2018-04-22T17:22:55.058Z,30.20
2018-04-22T17:25:23.415Z,29.90
2018-04-22T17:27:52.514Z,29.40
2018-04-22T17:30:20.786Z,29.30
2018-04-22T17:32:49.198Z,29.10
2018-04-22T17:35:17.480Z,28.80
2018-04-22T17:37:45.884Z,28.60
2018-04-22T17:40:14.925Z,28.20
2018-04-22T17:42:50.077Z,28.20
2018-04-22T17:45:33.274Z,28.00
2018-04-22T17:48:01.572Z,27.90
2018-04-22T17:50:30.963Z,27.70
2018-04-22T17:52:59.424Z,27.50
2018-04-22T17:55:31.404Z,27.40
2018-04-22T17:58:00.526Z,27.20
2018-04-22T18:00:30.417Z,27.00
2018-04-22T18:02:58.698Z,26.60
2018-04-22T18:05:27.829Z,26.50
2018-04-22T18:07:56.117Z,26.50
2018-04-22T18:10:25.265Z,26.30
2018-04-22T18:12:53.585Z,25.90
2018-04-22T18:15:22.120Z,26.00
2018-04-22T18:17:57.417Z,25.90
2018-04-22T18:20:25.791Z,25.70
2018-04-22T18:22:54.086Z,25.50
2018-04-22T18:25:22.375Z,25.40
2018-04-22T18:27:50.750Z,25.30
2018-04-22T18:30:19.237Z,25.10
2018-04-22T18:32:52.762Z,25.00
2018-04-22T18:35:22.286Z,24.80
2018-04-22T18:37:50.661Z,24.80
2018-04-22T18:40:19.296Z,24.70
2018-04-22T18:42:48.057Z,24.60
2018-04-22T18:45:16.550Z,24.50
2018-04-22T18:47:44.984Z,24.40
2018-04-22T18:50:14.279Z,24.30
2018-04-22T18:52:43.504Z,24.20
2018-04-22T18:55:11.964Z,24.20
2018-04-22T18:57:40.427Z,24.10
2018-04-22T19:00:08.880Z,24.00
2018-04-22T19:02:38.147Z,23.90
2018-04-22T19:05:07.017Z,23.70
2018-04-22T19:07:35.378Z,23.80
2018-04-22T19:10:04.005Z,23.70
2018-04-22T19:12:32.306Z,23.70
2018-04-22T19:15:00.699Z,23.60
2018-04-22T19:17:29.860Z,23.60
2018-04-22T19:19:59.024Z,23.50
2018-04-22T19:22:28.115Z,23.40
2018-04-22T19:24:56.392Z,23.30
2018-04-22T19:27:24.695Z,23.30
2018-04-22T19:29:53.772Z,23.20
2018-04-22T19:32:22.056Z,23.10
2018-04-22T19:34:51.393Z,23.00
2018-04-22T19:37:19.748Z,23.00
2018-04-22T19:39:50.229Z,22.90
2018-04-22T19:42:18.530Z,22.90
2018-04-22T19:44:46.870Z,22.80
2018-04-22T19:47:15.280Z,22.80
2018-04-22T19:49:44.601Z,22.80
2018-04-22T19:52:13.089Z,22.70
2018-04-22T19:54:42.214Z,22.70
2018-04-22T19:57:11.262Z,22.60
2018-04-22T19:59:40.242Z,22.70
2018-04-22T20:02:08.504Z,22.60
2018-04-22T20:04:36.892Z,22.50
2018-04-22T20:07:05.152Z,22.50
2018-04-22T20:09:33.490Z,22.40
2018-04-22T20:12:01.817Z,22.40
2018-04-22T20:14:31.421Z,22.30
2018-04-22T20:16:59.731Z,22.20
2018-04-22T20:19:28.004Z,22.10
2018-04-22T20:21:56.342Z,22.10
2018-04-22T20:24:26.132Z,22.00
2018-04-22T20:26:55.182Z,21.90
2018-04-22T20:29:23.469Z,21.90
2018-04-22T20:31:51.805Z,21.80
2018-04-22T20:34:20.058Z,21.80
2018-04-22T20:36:48.661Z,21.80
2018-04-22T20:39:18.493Z,21.70
2018-04-22T20:41:46.803Z,21.60
2018-04-22T20:44:15.103Z,21.70
2018-04-22T20:46:43.411Z,21.60
2018-04-22T20:49:12.492Z,21.60
2018-04-22T20:51:41.570Z,21.50
2018-04-22T20:54:09.881Z,21.50
2018-04-22T20:56:38.978Z,21.40
2018-04-22T20:59:08.014Z,21.40
2018-04-22T21:01:36.314Z,21.30
2018-04-22T21:04:04.629Z,21.30
2018-04-22T21:06:33.687Z,21.20
2018-04-22T21:09:01.970Z,21.20
2018-04-22T21:11:30.276Z,21.10
2018-04-22T21:13:59.319Z,21.00
2018-04-22T21:16:27.634Z,21.00
2018-04-22T21:18:56.712Z,21.00
2018-04-22T21:21:24.980Z,20.90
2018-04-22T21:23:53.276Z,20.90
2018-04-22T21:26:21.583Z,20.80
2018-04-22T21:28:50.639Z,20.70
2018-04-22T21:31:18.940Z,20.70
2018-04-22T21:33:47.323Z,20.60
2018-04-22T21:36:15.599Z,20.60
2018-04-22T21:38:43.882Z,20.60
2018-04-22T21:41:12.922Z,20.50
2018-04-22T21:43:41.185Z,20.50
2018-04-22T21:46:09.494Z,20.50
2018-04-22T21:48:37.767Z,20.40
2018-04-22T21:51:06.119Z,20.40
2018-04-22T21:53:35.177Z,20.30
2018-04-22T21:56:03.512Z,20.30
2018-04-22T21:58:31.779Z,20.30
2018-04-22T22:01:00.070Z,20.20
2018-04-22T22:03:28.426Z,20.20
2018-04-22T22:05:57.463Z,20.20
2018-04-22T22:08:25.758Z,20.20
2018-04-22T22:10:54.018Z,20.20
2018-04-22T22:13:22.324Z,20.20
2018-04-22T22:15:51.390Z,20.20
2018-04-22T22:18:19.710Z,20.20
2018-04-22T22:20:48.744Z,20.20
2018-04-22T22:23:17.019Z,20.20
2018-04-22T22:25:45.364Z,20.20
2018-04-22T22:28:14.439Z,20.10
2018-04-22T22:30:42.734Z,20.10
2018-04-22T22:33:11.065Z,20.10
2018-04-22T22:35:39.378Z,20.00
2018-04-22T22:38:07.630Z,20.00
2018-04-22T22:40:35.904Z,20.00
2018-04-22T22:43:04.294Z,20.00
2018-04-22T22:45:32.568Z,19.90
2018-04-22T22:48:00.880Z,19.80
2018-04-22T22:50:29.155Z,19.80
2018-04-22T22:52:57.487Z,19.70
2018-04-22T22:55:25.799Z,19.70
2018-04-22T22:57:54.057Z,19.60
2018-04-22T23:00:22.362Z,19.60
2018-04-22T23:02:50.435Z,19.60
2018-04-22T23:05:18.694Z,19.50
2018-04-22T23:07:46.991Z,19.50
2018-04-22T23:10:15.318Z,19.50
2018-04-22T23:12:43.589Z,19.40
2018-04-22T23:15:11.859Z,19.40
2018-04-22T23:17:40.161Z,19.30
2018-04-22T23:20:08.440Z,19.30
2018-04-22T23:22:36.741Z,19.30
2018-04-22T23:25:05.014Z,19.30
2018-04-22T23:27:33.533Z,19.30
2018-04-22T23:30:02.596Z,19.20
2018-04-22T23:32:30.925Z,18.90
2018-04-22T23:34:59.181Z,19.20
2018-04-22T23:37:27.450Z,19.10
2018-04-22T23:39:55.771Z,19.10
2018-04-22T23:42:24.039Z,19.10
2018-04-22T23:44:52.334Z,19.10
2018-04-22T23:47:20.607Z,19.10
2018-04-22T23:49:48.943Z,19.10
2018-04-22T23:52:17.224Z,19.00
2018-04-22T23:54:46.286Z,18.80
2018-04-22T23:57:14.585Z,18.80
2018-04-22T23:59:42.873Z,18.70
